Can Turuc

Olheiro - Fenerbahce
22 Fev 2028
Terça-feira
Processo

Personalidade

Adaptabilidade (18) Ambição (10) Controvérsia (15) Lealdade (12) Pressão (4) Profissionalismo (13) Espírito Esportivo (8) Temperamento (5)

Perfil

Estilo de Treinamento Democrático
Licença Nacional B
Determinação 11
Gestão de Pessoas 15
Motivação 16
Disciplina 8
Satisfação no Trabalho
100%
Fadiga
0%
Função Olheiro
Salário 76.8K p/s
Contrato 14.03.2028

Desempenho

Comportamento Bom
Eficácia do Treinamento
60%
Desenvolvimento do Jogador
60%
Prevenção de Lesões
50%
Implementação Tática
55%

Eventos Recentes

Negociação de contrato iniciada agora
Participou de uma reunião de recrutamento agora
Recomendou um alvo de transferência agora
Recomendou um alvo de transferência agora
Recomendou um alvo de transferência agora
Negociação de contrato iniciada 7d atrás
Negociação de contrato iniciada 7d atrás
Negociação de contrato iniciada 7d atrás

Monitorando agora

56
Jogador Clube Status Habilidade Confiança Observado Última observação Último voto
Denis Drăguş Fatih Karagumruk Ativo 135 / 135 42% 1 / 1m 19.01.2028 -
Eldor Shomurodov Basaksehir Relatório pronto 132 / 136 95% 1 10.01.2028 -
Ianis Hagi Alanyaspor Relatório pronto 131 / 139 95% 1 01.01.2028 Aprovar
Mervan Yiğit Ankaragucu Ativo 99 / 99 42% 1 / 1m 17.11.2027 -
Can Armando Güner Ankaragucu Ativo 106 / 111 30% 1 / 1m 17.11.2027 -
Omar Marmoush Manchester City Ativo 167 / 179 40% 1 16.08.2027 -
Morgan Rogers Chelsea Ativo 161 / 161 40% 1 16.08.2027 -
Matheus Cunha Manchester United Ativo 160 / 162 40% 1 16.08.2027 -
Marcus Rashford Manchester United Ativo 161 / 144 40% 1 31.05.2027 -
Carlos Alcaraz Everton Ativo 145 / 146 40% 6 30.05.2027 -
Jarrad Branthwaite Everton Ativo 150 / 142 40% 1 29.05.2027 -
Wesley Fofana Chelsea Ativo 167 / 156 40% 1 29.05.2027 -
Manor Solomon West Ham United Ativo 138 / 157 40% 1 28.05.2027 -
Alessandro Buongiorno Sassuolo Ativo 159 / 172 40% 7 27.05.2027 -
Noah Sadiki Sunderland Ativo 143 / 155 40% 4 27.05.2027 -
Matthijs de Ligt Manchester United Ativo 163 / 160 40% 1 27.05.2027 -
Shea Charles Southampton Ativo 137 / 152 40% 4 26.05.2027 -
Nathan Collins Brentford Ativo 149 / 157 40% 3 26.05.2027 -
Aaron Hickey Brentford Ativo 147 / 159 40% 2 25.05.2027 -
Mikkel Damsgaard Brentford Ativo 145 / 143 40% 2 23.05.2027 -
Kevin Fulham Ativo 150 / 163 40% 1 23.05.2027 -
Ryan Sessegnon Fulham Ativo 142 / 139 40% 5 22.05.2027 -
Adam Wharton Crystal Palace Ativo 148 / 149 40% 3 22.05.2027 -
Radek Vítek Middlesbrough Ativo 141 / 130 40% 1 21.05.2027 Mais informações
Quinten Timber Crystal Palace Ativo 147 / 158 40% 6 19.05.2027 -
Rodrigo Gomes Wolverhampton Ativo 144 / 134 40% 1 17.05.2027 -
Mats Wieffer Brighton Ativo 152 / 145 40% 5 16.05.2027 -
Enzo Le Fée Sunderland Ativo 136 / 129 40% 1 16.05.2027 -
Yeremy Pino Crystal Palace Ativo 149 / 157 40% 2 14.05.2027 -
Giacomo Raspadori Atalanta Ativo 150 / 140 40% 1 14.05.2027 -
Welington Southampton Ativo 132 / 136 40% 3 11.05.2027 -
Juanlu Bournemouth Ativo 148 / 166 40% 4 10.05.2027 -
Florentino Luís Ipswich Town Ativo 145 / 128 40% 2 09.05.2027 -
Habib Diarra Sunderland Ativo 144 / 142 40% 2 09.05.2027 -
Marvin Keller Bayer Leverkusen Negociando 146 / 138 40% 1 09.05.2027 -
Curtis Jones Inter Ativo 161 / 156 40% 3 07.05.2027 -
Amine Adli Bournemouth Ativo 145 / 149 40% 1 07.05.2027 -
Nicolò Cambiaghi Bologna Ativo 138 / 148 40% 1 07.05.2027 -
Pedro Porro Tottenham Ativo 144 / 157 40% 3 06.05.2027 -
Adrien Truffert Bournemouth Ativo 151 / 139 40% 2 05.05.2027 -
Nuno Tavares Lazio Ativo 145 / 133 40% 2 03.05.2027 -
Georginio Rutter Brighton Ativo 153 / 146 40% 3 28.04.2027 -
Malo Gusto Chelsea Ativo 151 / 150 40% 2 28.04.2027 -
Yehor Yarmoliuk Brentford Ativo 148 / 138 40% 1 20.04.2027 -
Soungoutou Magassa West Ham United Ativo 133 / 147 40% 1 19.04.2027 -
Ethan Galbraith Swansea City Ativo 136 / 146 40% 1 07.04.2027 -
Jean-Luc Dompé Konyaspor Ativo 130 / 124 83% 1 01.01.2027 Aprovar
Kai Havertz Arsenal Ativo 164 / 156 40% 1 31.12.2026 -
Nicolas Jackson Aston Villa Ativo 144 / 135 40% 1 31.12.2026 -
Tino Livramento Newcastle United Ativo 158 / 139 40% 2 29.12.2026 -
Matt O'Riley Brighton Ativo 152 / 137 40% 1 25.12.2026 -
Tyler Adams Bournemouth Ativo 158 / 150 40% 2 23.12.2026 -
Nico González Newcastle United Ativo 155 / 158 40% 1 14.12.2026 -
Olivier Kemen Basaksehir Ativo 125 / 136 83% 1 24.08.2026 Aprovar
Guilherme Konyaspor Ativo 123 / 125 83% 1 10.08.2026 Aprovar
Kian Fitz-Jim Torino Ativo 128 / 140 40% 1 01.08.2026 -